createdAt,value
2022-08-05T00:01:35.737Z,22.90
2022-08-05T00:04:08.175Z,22.90
2022-08-05T00:06:36.458Z,22.82
2022-08-05T00:09:13.155Z,22.90
2022-08-05T00:11:48.706Z,22.87
2022-08-05T00:14:18.662Z,22.84
2022-08-05T00:16:53.755Z,22.86
2022-08-05T00:19:22.670Z,22.82
2022-08-05T00:21:51.548Z,22.82
2022-08-05T00:24:31.080Z,22.84
2022-08-05T00:27:01.243Z,22.62
2022-08-05T00:29:37.936Z,22.70
2022-08-05T00:32:12.410Z,22.68
2022-08-05T00:35:04.686Z,22.73
2022-08-05T00:37:35.554Z,22.74
2022-08-05T00:40:27.899Z,22.86
2022-08-05T00:42:59.742Z,22.84
2022-08-05T00:45:38.435Z,22.69
2022-08-05T00:48:09.484Z,22.87
2022-08-05T00:50:38.497Z,23.09
2022-08-05T00:53:44.847Z,23.04
2022-08-05T00:55:57.737Z,22.98
2022-08-05T00:58:27.572Z,23.05
2022-08-05T01:00:55.904Z,23.04
2022-08-05T01:03:24.298Z,23.03
2022-08-05T01:05:59.062Z,22.87
2022-08-05T01:08:30.758Z,22.86
2022-08-05T01:11:14.914Z,22.90
2022-08-05T01:14:01.353Z,23.02
2022-08-05T01:16:35.147Z,22.98
2022-08-05T01:19:17.051Z,22.88
2022-08-05T01:21:58.333Z,22.89
2022-08-05T01:24:51.968Z,22.90
2022-08-05T01:27:36.358Z,22.83
2022-08-05T01:30:34.290Z,23.01
2022-08-05T01:33:08.269Z,22.89
2022-08-05T01:35:51.941Z,22.83
2022-08-05T01:38:26.927Z,22.83
2022-08-05T01:40:59.854Z,22.90
2022-08-05T01:43:30.768Z,22.86
2022-08-05T01:46:07.362Z,22.94
2022-08-05T01:48:49.358Z,23.02
2022-08-05T01:51:19.607Z,22.86
2022-08-05T01:53:57.200Z,22.89
2022-08-05T01:58:10.035Z,22.85
2022-08-05T01:59:22.345Z,22.62
2022-08-05T02:01:55.730Z,22.66
2022-08-05T02:04:30.014Z,22.87
2022-08-05T02:07:00.107Z,22.74
2022-08-05T02:09:31.829Z,22.89
2022-08-05T02:12:09.968Z,22.88
2022-08-05T02:14:44.370Z,22.86
2022-08-05T02:18:28.357Z,22.74
2022-08-05T02:20:15.400Z,22.58
2022-08-05T02:22:56.389Z,22.46
2022-08-05T02:25:33.006Z,22.61
2022-08-05T02:28:04.329Z,22.47
2022-08-05T02:30:42.680Z,22.53
2022-08-05T02:33:35.921Z,22.51
2022-08-05T02:36:10.005Z,22.45
2022-08-05T02:38:53.230Z,22.42
2022-08-05T02:41:29.032Z,22.67
2022-08-05T02:44:13.393Z,22.70
2022-08-05T02:46:53.356Z,22.80
2022-08-05T02:49:37.019Z,22.97
2022-08-05T02:52:11.609Z,22.90
2022-08-05T02:54:54.509Z,22.82
2022-08-05T02:58:09.759Z,22.58
2022-08-05T03:00:15.549Z,22.66
2022-08-05T03:02:48.336Z,22.54
2022-08-05T03:05:21.866Z,22.48
2022-08-05T03:08:08.695Z,22.63
2022-08-05T03:10:37.551Z,22.75
2022-08-05T03:13:16.804Z,22.85
2022-08-05T03:15:46.034Z,22.76
2022-08-05T03:18:14.969Z,22.52
2022-08-05T03:20:48.625Z,22.50
2022-08-05T03:23:17.605Z,22.55
2022-08-05T03:26:05.120Z,22.58
2022-08-05T03:28:34.055Z,22.54
2022-08-05T03:31:04.784Z,22.68
2022-08-05T03:33:51.163Z,22.54
2022-08-05T03:36:29.813Z,22.53
2022-08-05T03:38:58.934Z,22.72
2022-08-05T03:41:38.796Z,22.68
2022-08-05T03:44:13.496Z,22.71
2022-08-05T03:46:48.036Z,22.60
2022-08-05T03:49:16.552Z,22.51
2022-08-05T03:52:50.307Z,22.49
2022-08-05T03:55:51.628Z,22.39
2022-08-05T03:57:44.429Z,22.32
2022-08-05T04:00:16.309Z,22.49
2022-08-05T04:02:57.545Z,22.41
2022-08-05T04:05:33.443Z,22.63
2022-08-05T04:08:30.028Z,22.73
2022-08-05T04:10:56.144Z,22.79
2022-08-05T04:13:26.126Z,22.75
2022-08-05T04:16:15.154Z,22.78
2022-08-05T04:18:54.180Z,22.74
2022-08-05T04:22:09.469Z,22.68
2022-08-05T04:24:19.473Z,22.63
2022-08-05T04:26:50.711Z,22.58
2022-08-05T04:29:19.823Z,22.66
2022-08-05T04:31:48.339Z,22.56
2022-08-05T04:34:33.634Z,22.51
2022-08-05T04:37:03.443Z,22.35
2022-08-05T04:39:35.290Z,22.53
2022-08-05T04:42:03.792Z,22.61
2022-08-05T04:44:31.793Z,22.65
2022-08-05T04:46:59.906Z,22.65
2022-08-05T04:49:38.415Z,22.74
2022-08-05T04:52:27.803Z,22.68
2022-08-05T04:54:57.963Z,22.67
2022-08-05T04:57:37.181Z,22.67
2022-08-05T05:00:06.352Z,22.65
2022-08-05T05:02:41.945Z,22.74
2022-08-05T05:05:26.624Z,22.62
2022-08-05T05:08:02.080Z,22.75
2022-08-05T05:10:33.259Z,22.79
2022-08-05T05:13:04.041Z,22.80
2022-08-05T05:15:57.134Z,22.84
2022-08-05T05:18:30.967Z,22.80
2022-08-05T05:21:03.550Z,22.63
2022-08-05T05:23:39.407Z,22.74
2022-08-05T05:26:28.677Z,22.61
2022-08-05T05:29:14.293Z,22.69
2022-08-05T05:31:43.321Z,22.77
2022-08-05T05:34:15.654Z,22.71
2022-08-05T05:36:45.699Z,22.74
2022-08-05T05:39:15.445Z,22.78
2022-08-05T05:41:54.220Z,22.87
2022-08-05T05:44:36.516Z,22.81
2022-08-05T05:47:13.325Z,22.81
2022-08-05T05:49:52.549Z,22.82
2022-08-05T05:52:29.841Z,22.92
2022-08-05T05:55:07.461Z,22.93
2022-08-05T05:57:52.691Z,22.96
2022-08-05T06:00:27.733Z,22.63
2022-08-05T06:03:02.731Z,22.78
2022-08-05T06:05:31.936Z,22.65
2022-08-05T06:08:02.261Z,22.81
2022-08-05T06:10:37.460Z,22.79
2022-08-05T06:13:18.626Z,22.47
2022-08-05T06:16:29.970Z,22.72
2022-08-05T06:18:36.488Z,22.73
2022-08-05T06:21:08.021Z,22.86
2022-08-05T06:23:46.801Z,22.96
2022-08-05T06:26:21.521Z,23.09
2022-08-05T06:28:53.578Z,23.08
2022-08-05T06:31:22.080Z,22.83
2022-08-05T06:34:07.195Z,22.91
2022-08-05T06:36:53.517Z,22.99
2022-08-05T06:39:27.263Z,23.04
2022-08-05T06:41:58.702Z,23.19
2022-08-05T06:44:28.586Z,23.21
2022-08-05T06:46:56.610Z,23.00
2022-08-05T06:50:01.184Z,23.17
2022-08-05T06:52:38.203Z,23.30
2022-08-05T06:55:03.920Z,23.23
2022-08-05T06:58:03.209Z,23.47
2022-08-05T07:00:24.658Z,23.38
2022-08-05T07:02:53.708Z,23.42
2022-08-05T07:05:37.037Z,23.41
2022-08-05T07:08:06.662Z,23.27
2022-08-05T07:10:53.073Z,23.26
2022-08-05T07:13:59.282Z,23.30
2022-08-05T07:18:00.305Z,23.37
2022-08-05T07:22:28.716Z,23.30
2022-08-05T07:24:59.393Z,23.56
2022-08-05T07:27:56.644Z,23.56
2022-08-05T07:30:23.888Z,23.63
2022-08-05T07:32:57.644Z,23.82
2022-08-05T07:36:01.748Z,23.77
2022-08-05T07:38:32.053Z,23.76
2022-08-05T07:41:17.137Z,23.78
2022-08-05T07:43:49.888Z,23.94
2022-08-05T07:46:24.830Z,24.00
2022-08-05T07:49:02.943Z,23.90
2022-08-05T07:51:37.018Z,23.58
2022-08-05T07:54:09.487Z,23.85
2022-08-05T07:56:39.350Z,24.11
2022-08-05T07:59:38.840Z,24.17
2022-08-05T08:02:16.286Z,24.40
2022-08-05T08:04:49.156Z,24.56
2022-08-05T08:07:18.421Z,24.62
2022-08-05T08:09:52.905Z,24.80
2022-08-05T08:12:29.706Z,24.68
2022-08-05T08:15:09.737Z,24.53
2022-08-05T08:17:46.110Z,24.84
2022-08-05T08:20:43.888Z,25.03
2022-08-05T08:23:59.694Z,25.18
2022-08-05T08:26:00.048Z,25.11
2022-08-05T08:28:36.104Z,25.29
2022-08-05T08:31:05.973Z,25.21
2022-08-05T08:33:37.471Z,25.42
2022-08-05T08:36:38.234Z,25.77
2022-08-05T08:38:59.095Z,25.79
2022-08-05T08:41:52.028Z,25.67
2022-08-05T08:45:22.868Z,26.01
2022-08-05T08:47:47.424Z,25.86
2022-08-05T08:50:30.958Z,25.99
2022-08-05T08:53:12.275Z,26.34
2022-08-05T08:56:04.899Z,26.49
2022-08-05T08:58:43.228Z,26.74
2022-08-05T09:01:16.455Z,26.89
2022-08-05T09:03:52.821Z,26.96
2022-08-05T09:06:29.600Z,26.93
2022-08-05T09:09:01.530Z,27.05
2022-08-05T09:11:51.005Z,27.43
2022-08-05T09:14:57.338Z,27.41
2022-08-05T09:17:41.170Z,27.80
2022-08-05T09:20:04.322Z,27.39
2022-08-05T09:23:07.761Z,27.40
2022-08-05T09:26:02.841Z,27.67
2022-08-05T09:28:28.842Z,27.17
2022-08-05T09:31:23.442Z,26.86
2022-08-05T09:33:59.160Z,27.25
2022-08-05T09:36:45.735Z,27.14
2022-08-05T09:39:41.332Z,27.00
2022-08-05T09:42:17.442Z,27.29
2022-08-05T09:44:55.996Z,27.13
2022-08-05T09:47:28.635Z,27.15
2022-08-05T09:50:05.216Z,27.64
2022-08-05T09:52:45.198Z,27.85
2022-08-05T09:55:57.168Z,28.21
2022-08-05T09:58:11.806Z,27.58
2022-08-05T10:00:40.284Z,27.28
2022-08-05T10:03:12.294Z,27.51
2022-08-05T10:05:42.076Z,27.82
2022-08-05T10:08:10.639Z,28.27
2022-08-05T10:10:59.440Z,28.32
2022-08-05T10:13:45.754Z,28.35
2022-08-05T10:16:36.868Z,27.06
2022-08-05T10:19:10.383Z,27.57
2022-08-05T10:21:41.041Z,27.85
2022-08-05T10:24:13.484Z,28.03
2022-08-05T10:26:49.192Z,27.81
2022-08-05T10:29:23.842Z,27.95
2022-08-05T10:32:55.767Z,28.46
2022-08-05T10:35:01.167Z,28.19
2022-08-05T10:37:44.315Z,28.60
2022-08-05T10:40:27.796Z,28.52
2022-08-05T10:43:04.671Z,28.99
2022-08-05T10:45:41.810Z,28.96
2022-08-05T10:48:56.462Z,28.56
2022-08-05T10:51:29.242Z,29.15
2022-08-05T10:54:00.834Z,29.27
2022-08-05T10:56:31.561Z,29.26
2022-08-05T11:00:02.102Z,28.81
2022-08-05T11:02:08.586Z,28.76
2022-08-05T11:04:44.999Z,28.51
2022-08-05T11:07:16.235Z,28.66
2022-08-05T11:09:47.059Z,28.87
2022-08-05T11:12:50.867Z,28.76
2022-08-05T11:16:00.728Z,28.96
2022-08-05T11:18:29.744Z,28.94
2022-08-05T11:20:59.077Z,28.77
2022-08-05T11:24:02.732Z,28.27
2022-08-05T11:26:28.343Z,27.66
2022-08-05T11:29:12.169Z,27.91
2022-08-05T11:31:58.744Z,28.21
2022-08-05T11:34:51.125Z,27.22
2022-08-05T11:38:29.840Z,27.45
2022-08-05T11:41:14.153Z,27.16
2022-08-05T11:44:06.777Z,27.61
2022-08-05T11:47:09.897Z,27.99
2022-08-05T11:49:28.018Z,28.23
2022-08-05T11:51:57.371Z,28.34
2022-08-05T11:54:32.857Z,28.58
2022-08-05T11:57:08.028Z,28.72
2022-08-05T11:59:52.313Z,29.30
2022-08-05T12:02:31.437Z,29.53
2022-08-05T12:05:07.617Z,29.50
2022-08-05T12:08:03.638Z,29.49
2022-08-05T12:10:38.517Z,29.23
2022-08-05T12:13:18.461Z,29.26
2022-08-05T12:15:56.448Z,28.90
2022-08-05T12:18:33.763Z,29.11
2022-08-05T12:21:15.144Z,28.98
2022-08-05T12:23:54.009Z,29.03
2022-08-05T12:26:23.154Z,28.51
2022-08-05T12:28:52.339Z,28.59
2022-08-05T12:31:23.317Z,28.35
2022-08-05T12:34:01.506Z,28.62
2022-08-05T12:36:33.243Z,28.64
2022-08-05T12:39:01.917Z,29.02
2022-08-05T12:41:35.224Z,29.04
2022-08-05T12:44:32.786Z,28.85
2022-08-05T12:47:06.324Z,28.81
2022-08-05T12:50:05.337Z,28.51
2022-08-05T12:52:38.878Z,28.31
2022-08-05T12:55:22.333Z,28.40
2022-08-05T12:58:52.495Z,28.59
2022-08-05T13:01:59.955Z,28.82
2022-08-05T13:03:33.715Z,28.72
2022-08-05T13:06:11.616Z,28.63
2022-08-05T13:08:41.515Z,28.68
2022-08-05T13:11:59.992Z,28.81
2022-08-05T13:14:24.891Z,28.71
2022-08-05T13:17:08.946Z,28.52
2022-08-05T13:19:51.642Z,28.68
2022-08-05T13:22:28.503Z,29.05
2022-08-05T13:25:05.594Z,29.50
2022-08-05T13:27:39.026Z,29.92
2022-08-05T13:30:33.921Z,30.46
2022-08-05T13:33:01.488Z,30.69
2022-08-05T13:35:31.240Z,30.73
2022-08-05T13:38:20.462Z,30.82
2022-08-05T13:41:00.285Z,30.69
2022-08-05T13:43:45.923Z,31.23
2022-08-05T13:46:30.604Z,31.47
2022-08-05T13:49:10.366Z,31.09
2022-08-05T13:51:45.864Z,30.94
2022-08-05T13:54:16.486Z,30.54
2022-08-05T13:56:51.642Z,29.72
2022-08-05T13:59:24.196Z,29.45
2022-08-05T14:01:58.360Z,29.58
2022-08-05T14:04:50.057Z,29.76
2022-08-05T14:07:25.376Z,29.09
2022-08-05T14:10:13.693Z,28.92
2022-08-05T14:12:49.110Z,28.85
2022-08-05T14:16:08.602Z,28.76
2022-08-05T14:18:17.832Z,28.83
2022-08-05T14:20:47.907Z,28.77
2022-08-05T14:23:25.026Z,29.05
2022-08-05T14:25:58.115Z,29.51
2022-08-05T14:28:30.044Z,29.85
2022-08-05T14:30:58.703Z,30.37
2022-08-05T14:33:26.856Z,30.73
2022-08-05T14:35:55.016Z,30.59
2022-08-05T14:38:33.152Z,30.42
2022-08-05T14:41:06.178Z,30.15
2022-08-05T14:44:00.052Z,29.97
2022-08-05T14:46:28.201Z,29.91
2022-08-05T14:48:59.006Z,30.26
2022-08-05T14:51:31.791Z,29.79
2022-08-05T14:54:26.637Z,29.61
2022-08-05T14:56:51.056Z,30.22
2022-08-05T14:59:24.374Z,30.32
2022-08-05T15:01:53.784Z,30.72
2022-08-05T15:04:22.573Z,30.61
2022-08-05T15:06:51.182Z,30.49
2022-08-05T15:09:52.169Z,30.51
2022-08-05T15:12:11.834Z,30.04
2022-08-05T15:14:50.101Z,29.87
2022-08-05T15:17:46.953Z,29.79
2022-08-05T15:20:15.678Z,29.92
2022-08-05T15:22:54.153Z,29.97
2022-08-05T15:25:51.521Z,30.12
2022-08-05T15:28:14.332Z,30.09
2022-08-05T15:30:45.763Z,30.06
2022-08-05T15:33:56.734Z,29.71
2022-08-05T15:36:04.254Z,29.89
2022-08-05T15:38:36.545Z,29.39
2022-08-05T15:41:22.859Z,29.74
2022-08-05T15:43:54.596Z,29.74
2022-08-05T15:46:25.206Z,29.96
2022-08-05T15:48:58.638Z,30.37
2022-08-05T15:52:03.916Z,30.65
2022-08-05T15:54:17.802Z,30.40
2022-08-05T15:56:46.090Z,30.76
2022-08-05T15:59:22.265Z,31.16
2022-08-05T16:01:53.129Z,31.37
2022-08-05T16:04:25.663Z,30.73
2022-08-05T16:06:55.660Z,30.86
2022-08-05T16:09:24.062Z,30.90
2022-08-05T16:11:53.821Z,30.82
2022-08-05T16:14:22.324Z,31.00
2022-08-05T16:16:51.959Z,30.63
2022-08-05T16:20:02.999Z,30.62
2022-08-05T16:22:10.702Z,30.29
2022-08-05T16:24:51.424Z,30.14
2022-08-05T16:27:46.905Z,30.12
2022-08-05T16:30:25.801Z,29.93
2022-08-05T16:32:56.198Z,29.65
2022-08-05T16:35:27.756Z,29.52
2022-08-05T16:38:02.813Z,29.46
2022-08-05T16:40:48.093Z,28.87
2022-08-05T16:43:24.166Z,28.67
2022-08-05T16:46:04.549Z,28.72
2022-08-05T16:48:42.291Z,28.62
2022-08-05T16:51:10.991Z,28.57
2022-08-05T16:54:04.852Z,28.96
2022-08-05T16:56:30.130Z,29.02
2022-08-05T16:58:58.384Z,29.08
2022-08-05T17:01:26.905Z,29.26
2022-08-05T17:04:01.098Z,29.20
2022-08-05T17:06:30.047Z,29.30
2022-08-05T17:08:58.637Z,29.19
2022-08-05T17:11:27.775Z,28.94
2022-08-05T17:14:05.443Z,28.53
2022-08-05T17:16:36.633Z,28.27
2022-08-05T17:19:07.517Z,28.05
2022-08-05T17:21:39.751Z,27.97
2022-08-05T17:24:29.165Z,28.05
2022-08-05T17:26:57.624Z,28.22
2022-08-05T17:29:33.664Z,27.92
2022-08-05T17:32:11.618Z,27.59
2022-08-05T17:34:47.720Z,27.36
2022-08-05T17:37:40.340Z,27.48
2022-08-05T17:40:10.182Z,27.66
2022-08-05T17:42:41.592Z,27.48
2022-08-05T17:45:20.298Z,27.25
2022-08-05T17:47:53.949Z,27.34
2022-08-05T17:50:29.444Z,27.06
2022-08-05T17:53:01.129Z,26.99
2022-08-05T17:55:37.664Z,26.78
2022-08-05T17:58:10.897Z,26.62
2022-08-05T18:00:44.301Z,26.74
2022-08-05T18:03:12.942Z,26.61
2022-08-05T18:06:01.874Z,26.48
2022-08-05T18:08:32.348Z,26.30
2022-08-05T18:11:03.246Z,26.00
2022-08-05T18:13:36.880Z,25.90
2022-08-05T18:16:13.633Z,25.55
2022-08-05T18:18:48.072Z,25.30
2022-08-05T18:21:23.066Z,25.21
2022-08-05T18:23:54.654Z,25.32
2022-08-05T18:26:29.369Z,25.18
2022-08-05T18:29:00.375Z,25.27
2022-08-05T18:31:33.118Z,25.10
2022-08-05T18:34:05.833Z,25.02
2022-08-05T18:36:36.440Z,25.15
2022-08-05T18:39:06.492Z,25.15
2022-08-05T18:41:56.854Z,24.86
2022-08-05T18:44:35.143Z,24.76
2022-08-05T18:47:15.593Z,24.65
2022-08-05T18:50:01.076Z,24.63
2022-08-05T18:52:36.119Z,24.35
2022-08-05T18:55:10.579Z,24.25
2022-08-05T18:57:50.348Z,24.29
2022-08-05T19:00:28.591Z,24.20
2022-08-05T19:03:03.589Z,24.11
2022-08-05T19:06:11.319Z,24.03
2022-08-05T19:08:30.984Z,23.96
2022-08-05T19:11:04.802Z,23.84
2022-08-05T19:13:35.849Z,23.64
2022-08-05T19:16:05.654Z,23.60
2022-08-05T19:18:56.732Z,23.56
2022-08-05T19:21:27.694Z,23.51
2022-08-05T19:24:09.030Z,23.48
2022-08-05T19:26:43.842Z,23.42
2022-08-05T19:29:26.567Z,23.39
2022-08-05T19:31:55.416Z,23.25
2022-08-05T19:34:25.722Z,23.23
2022-08-05T19:36:53.831Z,23.27
2022-08-05T19:39:23.172Z,23.00
2022-08-05T19:42:06.999Z,23.01
2022-08-05T19:44:45.286Z,23.08
2022-08-05T19:47:15.308Z,22.91
2022-08-05T19:49:45.177Z,22.69
2022-08-05T19:52:30.418Z,22.60
2022-08-05T19:55:06.790Z,22.58
2022-08-05T19:57:49.104Z,22.60
2022-08-05T20:00:23.804Z,22.57
2022-08-05T20:02:52.483Z,22.43
2022-08-05T20:05:24.562Z,22.42
2022-08-05T20:07:57.685Z,22.34
2022-08-05T20:10:28.567Z,22.09
2022-08-05T20:12:56.971Z,22.10
2022-08-05T20:15:52.219Z,22.14
2022-08-05T20:18:32.551Z,22.08
2022-08-05T20:21:00.979Z,22.11
2022-08-05T20:23:40.687Z,22.02
2022-08-05T20:26:19.467Z,21.84
2022-08-05T20:28:48.555Z,21.96
2022-08-05T20:31:16.956Z,22.03
2022-08-05T20:33:45.555Z,22.09
2022-08-05T20:36:16.162Z,22.07
2022-08-05T20:38:54.217Z,21.79
2022-08-05T20:41:43.971Z,21.79
2022-08-05T20:44:18.548Z,21.77
2022-08-05T20:46:47.937Z,21.63
2022-08-05T20:49:18.483Z,21.76
2022-08-05T20:51:53.436Z,21.77
2022-08-05T20:54:21.800Z,21.85
2022-08-05T20:56:51.142Z,21.96
2022-08-05T20:59:26.980Z,21.96
2022-08-05T21:02:08.514Z,21.76
2022-08-05T21:04:37.436Z,21.82
2022-08-05T21:07:06.054Z,21.53
2022-08-05T21:09:37.260Z,21.36
2022-08-05T21:12:22.906Z,21.54
2022-08-05T21:14:55.218Z,21.39
2022-08-05T21:17:26.235Z,21.48
2022-08-05T21:19:56.606Z,21.42
2022-08-05T21:22:27.051Z,21.51
2022-08-05T21:24:56.472Z,21.55
2022-08-05T21:27:27.500Z,21.67
2022-08-05T21:29:56.124Z,21.74
2022-08-05T21:32:26.768Z,21.65
2022-08-05T21:35:06.688Z,21.75
2022-08-05T21:37:47.275Z,21.55
2022-08-05T21:40:16.657Z,21.53
2022-08-05T21:42:47.316Z,21.53
2022-08-05T21:45:25.240Z,21.58
2022-08-05T21:48:06.618Z,21.78
2022-08-05T21:50:36.706Z,21.96
2022-08-05T21:53:16.162Z,21.80
2022-08-05T21:56:05.571Z,21.86
2022-08-05T21:58:34.346Z,21.94
2022-08-05T22:01:05.772Z,22.00
2022-08-05T22:03:52.404Z,21.81
2022-08-05T22:06:35.466Z,21.91
2022-08-05T22:09:13.601Z,21.85
2022-08-05T22:11:46.851Z,21.91
2022-08-05T22:14:34.069Z,21.89
2022-08-05T22:17:07.531Z,21.66
2022-08-05T22:19:57.141Z,21.60
2022-08-05T22:22:28.021Z,21.76
2022-08-05T22:25:21.204Z,21.86
2022-08-05T22:28:11.079Z,21.90
2022-08-05T22:30:43.982Z,21.82
2022-08-05T22:33:55.568Z,21.70
2022-08-05T22:36:09.888Z,21.72
2022-08-05T22:38:38.150Z,21.68
2022-08-05T22:41:10.854Z,21.75
2022-08-05T22:43:40.639Z,21.70
2022-08-05T22:46:11.980Z,21.55
2022-08-05T22:48:41.694Z,21.46
2022-08-05T22:51:15.691Z,21.61
2022-08-05T22:53:51.175Z,21.55
2022-08-05T22:56:30.103Z,21.59
2022-08-05T22:58:59.901Z,21.57
2022-08-05T23:02:04.178Z,21.51
2022-08-05T23:04:18.928Z,21.45
2022-08-05T23:06:47.884Z,21.51
2022-08-05T23:09:53.334Z,21.50
2022-08-05T23:12:04.126Z,21.45
2022-08-05T23:14:32.780Z,21.39
2022-08-05T23:17:24.372Z,21.39
2022-08-05T23:20:02.441Z,21.43
2022-08-05T23:22:31.090Z,21.46
2022-08-05T23:24:59.727Z,21.35
2022-08-05T23:27:31.166Z,21.42
2022-08-05T23:30:11.297Z,21.39
2022-08-05T23:32:45.166Z,21.37
2022-08-05T23:35:13.736Z,21.34
2022-08-05T23:37:41.688Z,21.45
2022-08-05T23:40:12.119Z,21.54
2022-08-05T23:42:40.109Z,21.59
2022-08-05T23:45:15.913Z,21.49
2022-08-05T23:47:47.869Z,21.28
2022-08-05T23:50:17.077Z,21.34
2022-08-05T23:52:49.820Z,21.30
2022-08-05T23:55:19.977Z,21.29
2022-08-05T23:57:51.254Z,21.33
